createdAt,value
2023-02-18T00:00:08.316Z,12.01
2023-02-18T00:00:18.320Z,11.79
2023-02-18T00:00:28.332Z,12.00
2023-02-18T00:00:38.367Z,11.46
2023-02-18T00:00:48.331Z,11.84
2023-02-18T00:00:58.353Z,11.91
2023-02-18T00:01:08.373Z,12.27
2023-02-18T00:01:18.380Z,11.88
2023-02-18T00:01:28.392Z,11.58
2023-02-18T00:01:38.397Z,11.25
2023-02-18T00:01:48.403Z,11.89
2023-02-18T00:01:58.393Z,11.45
2023-02-18T00:02:08.443Z,11.26
2023-02-18T00:02:18.528Z,11.36
2023-02-18T00:02:28.432Z,12.39
2023-02-18T00:02:38.496Z,12.29
2023-02-18T00:02:49.173Z,12.26
2023-02-18T00:02:58.450Z,11.56
2023-02-18T00:03:08.460Z,10.74
2023-02-18T00:03:18.578Z,10.41
2023-02-18T00:03:28.459Z,10.56
2023-02-18T00:03:38.481Z,10.68
2023-02-18T00:03:48.487Z,11.01
2023-02-18T00:03:58.456Z,11.04
2023-02-18T00:04:08.451Z,11.33
2023-02-18T00:04:18.436Z,11.78
2023-02-18T00:04:28.433Z,11.54
2023-02-18T00:04:38.426Z,11.16
2023-02-18T00:04:49.409Z,10.98
2023-02-18T00:04:58.440Z,11.68
2023-02-18T00:05:08.447Z,11.88
2023-02-18T00:05:18.444Z,12.22
2023-02-18T00:05:28.431Z,12.14
2023-02-18T00:05:38.439Z,11.82
2023-02-18T00:05:48.437Z,11.27
2023-02-18T00:05:58.452Z,11.42
2023-02-18T00:06:08.635Z,11.03
2023-02-18T00:06:18.447Z,10.99
2023-02-18T00:06:28.464Z,10.53
2023-02-18T00:06:38.577Z,10.45
2023-02-18T00:06:48.454Z,10.24
2023-02-18T00:06:58.456Z,10.31
2023-02-18T00:07:08.447Z,10.62
2023-02-18T00:07:18.483Z,11.44
2023-02-18T00:07:28.451Z,11.93
2023-02-18T00:07:38.463Z,11.77
2023-02-18T00:07:48.472Z,11.44
2023-02-18T00:07:58.452Z,11.23
2023-02-18T00:08:08.467Z,10.74
2023-02-18T00:08:18.460Z,10.88
2023-02-18T00:08:28.535Z,11.40
2023-02-18T00:08:38.435Z,10.83
2023-02-18T00:08:48.477Z,11.01
2023-02-18T00:08:58.447Z,11.16
2023-02-18T00:09:08.475Z,11.13
2023-02-18T00:09:18.429Z,11.03
2023-02-18T00:09:28.454Z,11.09
2023-02-18T00:09:38.445Z,10.96
2023-02-18T00:09:48.414Z,11.38
2023-02-18T00:09:58.430Z,11.51
2023-02-18T00:10:08.431Z,11.84
2023-02-18T00:10:18.428Z,11.49
2023-02-18T00:10:28.463Z,10.99
2023-02-18T00:10:38.434Z,11.52
2023-02-18T00:10:48.460Z,11.78
2023-02-18T00:10:58.457Z,11.19
2023-02-18T00:11:08.450Z,10.66
2023-02-18T00:11:18.499Z,10.26
2023-02-18T00:11:28.504Z,10.02
2023-02-18T00:11:38.501Z,10.33
2023-02-18T00:11:48.517Z,11.06
2023-02-18T00:11:58.509Z,10.75
2023-02-18T00:12:08.510Z,10.97
2023-02-18T00:12:18.543Z,10.51
2023-02-18T00:12:28.534Z,10.36
2023-02-18T00:12:38.528Z,9.71
2023-02-18T00:12:48.566Z,9.86
2023-02-18T00:12:58.567Z,9.92
2023-02-18T00:13:08.570Z,9.58
2023-02-18T00:13:18.608Z,9.59
2023-02-18T00:13:28.687Z,10.14
2023-02-18T00:13:38.600Z,9.61
2023-02-18T00:13:48.607Z,9.53
2023-02-18T00:13:58.614Z,9.93
2023-02-18T00:14:08.623Z,9.71
2023-02-18T00:14:18.655Z,9.46
2023-02-18T00:14:28.635Z,9.14
2023-02-18T00:14:38.645Z,9.16
2023-02-18T00:14:48.668Z,9.28
2023-02-18T00:14:58.650Z,8.72
2023-02-18T00:15:08.649Z,8.43
2023-02-18T00:15:18.702Z,8.63
2023-02-18T00:15:28.739Z,9.16
2023-02-18T00:15:38.749Z,9.31
2023-02-18T00:15:48.751Z,9.08
2023-02-18T00:15:58.762Z,9.09
2023-02-18T00:16:09.047Z,8.79
2023-02-18T00:16:18.940Z,8.92
2023-02-18T00:16:28.949Z,9.05
2023-02-18T00:16:38.948Z,9.26
2023-02-18T00:16:48.953Z,10.29
2023-02-18T00:16:58.943Z,10.56
2023-02-18T00:17:08.955Z,10.58
2023-02-18T00:17:18.973Z,11.00
2023-02-18T00:17:28.956Z,10.35
2023-02-18T00:17:38.971Z,10.18
2023-02-18T00:17:48.945Z,10.68
2023-02-18T00:17:58.960Z,10.82
2023-02-18T00:18:08.949Z,10.71
2023-02-18T00:18:18.934Z,10.62
2023-02-18T00:18:28.979Z,10.43
2023-02-18T00:18:38.933Z,11.13
2023-02-18T00:18:48.975Z,11.25
2023-02-18T00:18:58.946Z,10.81
2023-02-18T00:19:08.965Z,10.55
2023-02-18T00:19:18.929Z,10.76
2023-02-18T00:19:28.943Z,10.88
2023-02-18T00:19:38.969Z,11.31
2023-02-18T00:19:48.930Z,10.12
2023-02-18T00:19:58.930Z,9.73
2023-02-18T00:20:08.937Z,9.74
2023-02-18T00:20:18.928Z,10.40
2023-02-18T00:20:28.941Z,10.75
2023-02-18T00:20:38.926Z,10.61
2023-02-18T00:20:48.924Z,10.50
2023-02-18T00:20:58.934Z,10.46
2023-02-18T00:21:08.933Z,10.57
2023-02-18T00:21:18.927Z,10.65
2023-02-18T00:21:28.931Z,10.69
2023-02-18T00:21:38.930Z,10.38
2023-02-18T00:21:48.941Z,9.58
2023-02-18T00:21:58.924Z,9.81
2023-02-18T00:22:08.931Z,10.81
2023-02-18T00:22:18.932Z,11.34
2023-02-18T00:22:28.934Z,11.18
2023-02-18T00:22:38.928Z,11.09
2023-02-18T00:22:48.936Z,10.53
2023-02-18T00:22:58.958Z,10.55
2023-02-18T00:23:08.940Z,10.23
2023-02-18T00:23:18.990Z,10.24
2023-02-18T00:23:29.002Z,9.88
2023-02-18T00:23:39.021Z,10.21
2023-02-18T00:23:49.012Z,10.48
2023-02-18T00:23:59.012Z,10.93
2023-02-18T00:24:08.998Z,10.88
2023-02-18T00:24:19.045Z,10.73
2023-02-18T00:24:29.037Z,10.16
2023-02-18T00:24:39.034Z,10.71
2023-02-18T00:24:49.051Z,10.87
2023-02-18T00:24:59.055Z,10.21
2023-02-18T00:25:09.064Z,9.75
2023-02-18T00:25:19.090Z,9.40
2023-02-18T00:25:29.099Z,9.98
2023-02-18T00:25:39.090Z,9.93
2023-02-18T00:25:49.090Z,9.82
2023-02-18T00:25:59.117Z,10.15
2023-02-18T00:26:09.560Z,10.23
2023-02-18T00:26:19.124Z,10.28
2023-02-18T00:26:29.108Z,10.07
2023-02-18T00:26:39.110Z,10.05
2023-02-18T00:26:49.096Z,10.24
2023-02-18T00:26:59.111Z,10.04
2023-02-18T00:27:09.119Z,9.71
2023-02-18T00:27:19.117Z,9.72
2023-02-18T00:27:29.113Z,10.00
2023-02-18T00:27:39.099Z,10.14
2023-02-18T00:27:49.093Z,10.53
2023-02-18T00:27:59.108Z,9.90
2023-02-18T00:28:09.092Z,9.76
2023-02-18T00:28:19.103Z,9.62
2023-02-18T00:28:29.104Z,10.15
2023-02-18T00:28:39.141Z,10.36
2023-02-18T00:28:49.109Z,10.29
2023-02-18T00:28:59.097Z,10.50
2023-02-18T00:29:09.079Z,10.43
2023-02-18T00:29:19.098Z,10.21
2023-02-18T00:29:29.114Z,9.78
2023-02-18T00:29:39.084Z,9.65
2023-02-18T00:29:49.093Z,9.87
2023-02-18T00:29:59.118Z,10.54
2023-02-18T00:30:09.105Z,10.79
2023-02-18T00:30:19.153Z,10.47
2023-02-18T00:30:29.125Z,9.96
2023-02-18T00:30:39.099Z,9.66
2023-02-18T00:30:49.118Z,9.77
2023-02-18T00:30:59.114Z,9.89
2023-02-18T00:31:09.171Z,9.62
2023-02-18T00:31:19.159Z,9.48
2023-02-18T00:31:29.196Z,9.37
2023-02-18T00:31:39.263Z,9.52
2023-02-18T00:31:49.175Z,9.06
2023-02-18T00:31:59.154Z,8.77
2023-02-18T00:32:09.110Z,8.69
2023-02-18T00:32:19.102Z,9.12
2023-02-18T00:32:29.106Z,10.06
2023-02-18T00:32:39.106Z,9.93
2023-02-18T00:32:49.087Z,9.47
2023-02-18T00:32:59.092Z,9.54
2023-02-18T00:33:09.091Z,9.84
2023-02-18T00:33:19.112Z,10.03
2023-02-18T00:33:29.083Z,9.92
2023-02-18T00:33:39.105Z,10.50
2023-02-18T00:33:49.127Z,10.39
2023-02-18T00:33:59.089Z,9.67
2023-02-18T00:34:09.083Z,9.17
2023-02-18T00:34:19.073Z,8.87
2023-02-18T00:34:29.079Z,8.56
2023-02-18T00:34:39.095Z,8.38
2023-02-18T00:34:49.083Z,8.22
2023-02-18T00:34:59.082Z,8.42
2023-02-18T00:35:09.108Z,8.39
2023-02-18T00:35:19.075Z,8.76
2023-02-18T00:35:29.078Z,9.02
2023-02-18T00:35:39.073Z,8.96
2023-02-18T00:35:49.073Z,8.93
2023-02-18T00:35:59.058Z,9.15
2023-02-18T00:36:09.391Z,9.18
2023-02-18T00:36:19.087Z,9.03
2023-02-18T00:36:29.079Z,9.14
2023-02-18T00:36:39.093Z,9.40
2023-02-18T00:36:49.066Z,9.35
2023-02-18T00:36:59.062Z,8.80
2023-02-18T00:37:09.091Z,8.39
2023-02-18T00:37:19.074Z,8.74
2023-02-18T00:37:29.060Z,8.97
2023-02-18T00:37:39.037Z,8.81
2023-02-18T00:37:49.057Z,8.43
2023-02-18T00:37:59.073Z,8.51
2023-02-18T00:38:09.084Z,7.98
2023-02-18T00:38:19.070Z,8.10
2023-02-18T00:38:29.058Z,8.48
2023-02-18T00:38:39.038Z,9.02
2023-02-18T00:38:49.055Z,9.30
2023-02-18T00:38:59.114Z,8.85
2023-02-18T00:39:09.053Z,9.07
2023-02-18T00:39:19.065Z,8.95
2023-02-18T00:39:29.056Z,8.99
2023-02-18T00:39:39.069Z,8.85
2023-02-18T00:39:49.065Z,8.48
2023-02-18T00:39:59.066Z,8.44
2023-02-18T00:40:09.056Z,8.71
2023-02-18T00:40:19.062Z,8.55
2023-02-18T00:40:29.058Z,8.61
2023-02-18T00:40:39.045Z,8.38
2023-02-18T00:40:49.058Z,8.66
2023-02-18T00:40:59.135Z,8.75
2023-02-18T00:41:09.060Z,8.75
2023-02-18T00:41:19.060Z,9.05
2023-02-18T00:41:29.066Z,9.05
2023-02-18T00:41:39.057Z,8.90
2023-02-18T00:41:49.054Z,9.46
2023-02-18T00:41:59.054Z,8.84
2023-02-18T00:42:09.059Z,8.19
2023-02-18T00:42:19.066Z,8.49
2023-02-18T00:42:29.059Z,9.35
2023-02-18T00:42:39.079Z,9.42
2023-02-18T00:42:49.075Z,9.37
2023-02-18T00:42:59.114Z,8.61
2023-02-18T00:43:09.109Z,8.68
2023-02-18T00:43:19.118Z,8.22
2023-02-18T00:43:29.132Z,8.46
2023-02-18T00:43:39.129Z,8.48
2023-02-18T00:43:49.122Z,8.86
2023-02-18T00:43:59.202Z,9.06
2023-02-18T00:44:09.134Z,8.71
2023-02-18T00:44:19.151Z,9.09
2023-02-18T00:44:29.240Z,9.34
2023-02-18T00:44:39.181Z,9.01
2023-02-18T00:44:49.160Z,8.34
2023-02-18T00:44:59.219Z,8.72
2023-02-18T00:45:09.232Z,8.96
2023-02-18T00:45:19.224Z,9.34
2023-02-18T00:45:29.248Z,9.22
2023-02-18T00:45:39.248Z,9.12
2023-02-18T00:45:49.217Z,8.86
2023-02-18T00:45:59.354Z,9.00
2023-02-18T00:46:09.683Z,8.96
2023-02-18T00:46:19.283Z,8.76
2023-02-18T00:46:29.344Z,8.66
2023-02-18T00:46:39.318Z,8.71
2023-02-18T00:46:49.276Z,8.83
2023-02-18T00:46:59.258Z,8.69
2023-02-18T00:47:09.256Z,8.47
2023-02-18T00:47:19.252Z,8.97
2023-02-18T00:47:29.262Z,8.90
2023-02-18T00:47:39.272Z,9.24
2023-02-18T00:47:49.258Z,8.72
2023-02-18T00:47:59.263Z,8.86
2023-02-18T00:48:09.247Z,8.72
2023-02-18T00:48:19.276Z,8.62
2023-02-18T00:48:29.251Z,8.47
2023-02-18T00:48:39.276Z,9.00
2023-02-18T00:48:49.244Z,9.63
2023-02-18T00:48:59.301Z,9.35
2023-02-18T00:49:09.262Z,9.04
2023-02-18T00:49:19.262Z,8.89
2023-02-18T00:49:29.250Z,8.67
2023-02-18T00:49:39.265Z,8.10
2023-02-18T00:49:49.253Z,7.68
2023-02-18T00:49:59.275Z,7.41
2023-02-18T00:50:09.279Z,7.49
2023-02-18T00:50:19.259Z,8.20
2023-02-18T00:50:29.294Z,8.30
2023-02-18T00:50:39.292Z,8.37
2023-02-18T00:50:49.293Z,8.09
2023-02-18T00:50:59.318Z,8.48
2023-02-18T00:51:09.315Z,8.35
2023-02-18T00:51:19.311Z,8.16
2023-02-18T00:51:29.334Z,8.58
2023-02-18T00:51:39.329Z,8.47
2023-02-18T00:51:49.342Z,8.03
2023-02-18T00:51:59.354Z,7.74
2023-02-18T00:52:09.361Z,8.38
2023-02-18T00:52:19.391Z,8.80
2023-02-18T00:52:29.391Z,8.92
2023-02-18T00:52:39.390Z,8.92
2023-02-18T00:52:49.401Z,9.01
2023-02-18T00:52:59.413Z,9.02
2023-02-18T00:53:09.405Z,8.52
2023-02-18T00:53:19.429Z,8.47
2023-02-18T00:53:29.439Z,8.92
2023-02-18T00:53:39.431Z,8.69
2023-02-18T00:53:49.439Z,8.26
2023-02-18T00:53:59.494Z,7.90
2023-02-18T00:54:09.482Z,7.82
2023-02-18T00:54:19.466Z,7.13
2023-02-18T00:54:29.506Z,7.34
2023-02-18T00:54:39.454Z,7.33
2023-02-18T00:54:49.488Z,7.03
2023-02-18T00:54:59.520Z,7.04
2023-02-18T00:55:09.506Z,7.39
2023-02-18T00:55:19.521Z,7.77
2023-02-18T00:55:29.527Z,7.82
2023-02-18T00:55:39.530Z,7.56
2023-02-18T00:55:49.526Z,7.90
2023-02-18T00:55:59.567Z,7.90
2023-02-18T00:56:09.903Z,8.10
2023-02-18T00:56:19.571Z,8.20
2023-02-18T00:56:29.590Z,8.45
2023-02-18T00:56:39.572Z,8.35
2023-02-18T00:56:49.608Z,8.55
2023-02-18T00:56:59.534Z,8.65
2023-02-18T00:57:09.555Z,8.77
2023-02-18T00:57:19.549Z,8.62
2023-02-18T00:57:29.578Z,8.49
2023-02-18T00:57:39.565Z,8.67
2023-02-18T00:57:49.570Z,8.57
2023-02-18T00:57:59.551Z,8.51
2023-02-18T00:58:09.563Z,8.38
2023-02-18T00:58:19.557Z,8.52
2023-02-18T00:58:29.544Z,8.90
2023-02-18T00:58:39.562Z,8.45
2023-02-18T00:58:49.567Z,8.56
2023-02-18T00:58:59.610Z,8.62
2023-02-18T00:59:09.580Z,8.88
2023-02-18T00:59:19.562Z,9.00
2023-02-18T00:59:29.554Z,9.06
2023-02-18T00:59:39.545Z,9.01
2023-02-18T00:59:49.555Z,9.10
2023-02-18T00:59:59.552Z,8.78
2023-02-18T01:00:09.549Z,8.86
2023-02-18T01:00:19.558Z,8.58
2023-02-18T01:00:29.552Z,8.27
2023-02-18T01:00:39.548Z,8.41
2023-02-18T01:00:49.529Z,8.18
2023-02-18T01:00:59.545Z,7.94
2023-02-18T01:01:09.527Z,8.00
2023-02-18T01:01:19.536Z,7.94
2023-02-18T01:01:29.595Z,8.22
2023-02-18T01:01:39.619Z,7.98
2023-02-18T01:01:49.582Z,8.06
2023-02-18T01:01:59.545Z,8.04
2023-02-18T01:02:09.558Z,7.73
2023-02-18T01:02:19.569Z,7.18
2023-02-18T01:02:29.571Z,7.38
2023-02-18T01:02:39.597Z,7.51
2023-02-18T01:02:49.577Z,8.13
2023-02-18T01:02:59.618Z,8.36
2023-02-18T01:03:09.611Z,8.04
2023-02-18T01:03:19.611Z,8.18
2023-02-18T01:03:29.645Z,8.31
2023-02-18T01:03:39.646Z,8.34
2023-02-18T01:03:49.637Z,7.87
2023-02-18T01:03:59.713Z,7.56
2023-02-18T01:04:09.677Z,7.79
2023-02-18T01:04:19.684Z,8.46
2023-02-18T01:04:29.731Z,8.45
2023-02-18T01:04:39.735Z,7.85
2023-02-18T01:04:49.773Z,7.41
2023-02-18T01:04:59.741Z,7.44
2023-02-18T01:05:09.708Z,7.52
2023-02-18T01:05:19.706Z,7.97
2023-02-18T01:05:29.742Z,8.42
2023-02-18T01:05:39.750Z,8.28
2023-02-18T01:05:49.750Z,7.92
2023-02-18T01:05:59.759Z,8.09
2023-02-18T01:06:09.977Z,8.03
2023-02-18T01:06:19.758Z,7.98
2023-02-18T01:06:29.766Z,7.85
2023-02-18T01:06:39.755Z,7.88
2023-02-18T01:06:49.761Z,8.16
2023-02-18T01:06:59.782Z,7.92
2023-02-18T01:07:09.742Z,7.71
2023-02-18T01:07:19.757Z,7.70
2023-02-18T01:07:29.772Z,7.93
2023-02-18T01:07:39.753Z,8.44
2023-02-18T01:07:49.754Z,7.98
2023-02-18T01:07:59.760Z,7.35
2023-02-18T01:08:09.749Z,6.87
2023-02-18T01:08:19.758Z,6.57
2023-02-18T01:08:29.757Z,6.58
2023-02-18T01:08:39.765Z,6.99
2023-02-18T01:08:49.780Z,7.27
2023-02-18T01:08:59.858Z,7.45
2023-02-18T01:09:09.753Z,7.40
2023-02-18T01:09:19.761Z,7.57
2023-02-18T01:09:29.750Z,7.82
2023-02-18T01:09:39.774Z,7.93
2023-02-18T01:09:49.745Z,7.96
2023-02-18T01:09:59.744Z,7.84
2023-02-18T01:10:09.776Z,7.88
2023-02-18T01:10:19.733Z,8.26
2023-02-18T01:10:29.738Z,8.27
2023-02-18T01:10:39.755Z,7.90
2023-02-18T01:10:49.736Z,7.54
2023-02-18T01:10:59.766Z,7.49
2023-02-18T01:11:09.756Z,7.96
2023-02-18T01:11:19.784Z,7.80
2023-02-18T01:11:29.727Z,7.92
2023-02-18T01:11:39.739Z,7.97
2023-02-18T01:11:49.753Z,7.96
2023-02-18T01:11:59.759Z,7.88
2023-02-18T01:12:09.739Z,7.89
2023-02-18T01:12:19.757Z,8.05
2023-02-18T01:12:29.793Z,7.98
2023-02-18T01:12:39.805Z,8.34
2023-02-18T01:12:49.788Z,8.32
2023-02-18T01:12:59.793Z,8.45
2023-02-18T01:13:09.784Z,8.11
2023-02-18T01:13:19.803Z,7.63
2023-02-18T01:13:29.824Z,7.58
2023-02-18T01:13:39.819Z,7.42
2023-02-18T01:13:49.819Z,7.03
2023-02-18T01:13:59.839Z,7.32
2023-02-18T01:14:09.879Z,7.65
2023-02-18T01:14:19.842Z,7.29
2023-02-18T01:14:29.878Z,6.75
2023-02-18T01:14:39.887Z,7.06
2023-02-18T01:14:49.873Z,7.39
2023-02-18T01:14:59.924Z,7.69
2023-02-18T01:15:09.888Z,7.91
2023-02-18T01:15:19.894Z,7.96
2023-02-18T01:15:29.929Z,7.52
2023-02-18T01:15:39.922Z,7.48
2023-02-18T01:15:50.023Z,7.86
2023-02-18T01:15:59.984Z,7.44
2023-02-18T01:16:10.328Z,7.52
2023-02-18T01:16:19.981Z,7.54
2023-02-18T01:16:30.004Z,7.70
2023-02-18T01:16:39.953Z,7.65
2023-02-18T01:16:49.950Z,7.44
2023-02-18T01:16:59.971Z,7.73
2023-02-18T01:17:09.938Z,7.28
2023-02-18T01:17:19.939Z,7.20
2023-02-18T01:17:29.935Z,7.08
2023-02-18T01:17:39.958Z,7.09
2023-02-18T01:17:49.941Z,7.32
2023-02-18T01:17:59.945Z,7.56
2023-02-18T01:18:09.973Z,8.09
2023-02-18T01:18:19.949Z,8.36
2023-02-18T01:18:29.942Z,7.96
2023-02-18T01:18:39.972Z,7.44
2023-02-18T01:18:49.930Z,7.54
2023-02-18T01:18:59.951Z,7.39
2023-02-18T01:19:09.996Z,7.49
2023-02-18T01:19:19.936Z,7.37
2023-02-18T01:19:29.944Z,7.47
2023-02-18T01:19:39.933Z,7.51
2023-02-18T01:19:49.932Z,7.83
2023-02-18T01:19:59.943Z,7.62
2023-02-18T01:20:09.932Z,7.69
2023-02-18T01:20:19.934Z,7.90
2023-02-18T01:20:29.955Z,7.98
2023-02-18T01:20:39.940Z,7.62
2023-02-18T01:20:49.959Z,7.30
2023-02-18T01:20:59.946Z,7.40
2023-02-18T01:21:09.939Z,7.38
2023-02-18T01:21:19.966Z,7.35
2023-02-18T01:21:30.003Z,7.66
2023-02-18T01:21:39.989Z,7.61
2023-02-18T01:21:49.959Z,7.59
2023-02-18T01:22:00.018Z,7.42
2023-02-18T01:22:10.018Z,7.56
2023-02-18T01:22:19.974Z,7.66
2023-02-18T01:22:30.033Z,6.90
2023-02-18T01:22:40.022Z,6.92
2023-02-18T01:22:50.029Z,7.15
2023-02-18T01:23:00.038Z,6.83
2023-02-18T01:23:10.054Z,6.63
2023-02-18T01:23:20.022Z,6.97
2023-02-18T01:23:30.066Z,6.79
2023-02-18T01:23:40.099Z,7.04
2023-02-18T01:23:50.063Z,7.31
2023-02-18T01:24:00.144Z,7.13
2023-02-18T01:24:10.178Z,7.28
2023-02-18T01:24:20.098Z,7.91
2023-02-18T01:24:30.114Z,7.55
2023-02-18T01:24:40.116Z,7.88
2023-02-18T01:24:50.113Z,7.31
2023-02-18T01:25:00.150Z,6.50
2023-02-18T01:25:10.141Z,7.04
2023-02-18T01:25:20.152Z,7.19
2023-02-18T01:25:30.180Z,7.25
2023-02-18T01:25:40.150Z,7.08
2023-02-18T01:25:50.170Z,7.04
2023-02-18T01:26:00.209Z,7.22
2023-02-18T01:26:10.552Z,7.07
2023-02-18T01:26:20.193Z,7.71
2023-02-18T01:26:30.199Z,7.53
2023-02-18T01:26:40.182Z,7.62
2023-02-18T01:26:50.195Z,7.13
2023-02-18T01:27:00.191Z,7.11
2023-02-18T01:27:10.199Z,7.07
2023-02-18T01:27:20.201Z,7.25
2023-02-18T01:27:30.208Z,7.26
2023-02-18T01:27:40.212Z,7.18
2023-02-18T01:27:50.200Z,6.96
2023-02-18T01:28:00.201Z,7.12
2023-02-18T01:28:10.170Z,7.04
2023-02-18T01:28:20.171Z,7.23
2023-02-18T01:28:30.182Z,7.48
2023-02-18T01:28:40.217Z,7.54
2023-02-18T01:28:50.194Z,7.47
2023-02-18T01:29:00.189Z,6.94
2023-02-18T01:29:10.189Z,6.92
2023-02-18T01:29:20.226Z,6.92
2023-02-18T01:29:30.181Z,7.33
2023-02-18T01:29:40.181Z,7.44
2023-02-18T01:29:50.182Z,7.77
2023-02-18T01:30:00.247Z,8.32
2023-02-18T01:30:10.219Z,8.42
2023-02-18T01:30:20.195Z,8.55
2023-02-18T01:30:30.211Z,8.27
2023-02-18T01:30:40.170Z,8.02
2023-02-18T01:30:51.356Z,8.03
2023-02-18T01:31:00.224Z,7.86
2023-02-18T01:31:10.314Z,7.66
2023-02-18T01:31:20.251Z,7.26
2023-02-18T01:31:30.270Z,7.50
2023-02-18T01:31:40.276Z,7.75
2023-02-18T01:31:50.334Z,7.53
2023-02-18T01:32:00.353Z,7.69
2023-02-18T01:32:10.254Z,7.34
2023-02-18T01:32:20.212Z,7.06
2023-02-18T01:32:30.188Z,7.51
2023-02-18T01:32:40.174Z,7.50
2023-02-18T01:32:50.181Z,7.60
2023-02-18T01:33:00.182Z,7.27
2023-02-18T01:33:10.162Z,7.16
2023-02-18T01:33:20.167Z,6.98
2023-02-18T01:33:30.177Z,8.06
2023-02-18T01:33:40.181Z,8.17
2023-02-18T01:33:50.187Z,7.78
2023-02-18T01:34:00.187Z,7.50
2023-02-18T01:34:10.178Z,7.60
2023-02-18T01:34:20.166Z,7.16
2023-02-18T01:34:30.219Z,6.91
2023-02-18T01:34:40.167Z,7.00
2023-02-18T01:34:50.170Z,7.41
2023-02-18T01:35:00.172Z,7.04
2023-02-18T01:35:10.163Z,6.54
2023-02-18T01:35:20.168Z,7.22
2023-02-18T01:35:30.152Z,7.52
2023-02-18T01:35:40.179Z,7.80
2023-02-18T01:35:50.156Z,8.00
2023-02-18T01:36:00.157Z,7.47
2023-02-18T01:36:10.438Z,6.94
2023-02-18T01:36:20.342Z,7.47
2023-02-18T01:36:30.335Z,7.57
2023-02-18T01:36:40.340Z,6.86
2023-02-18T01:36:50.351Z,6.54
2023-02-18T01:37:00.336Z,7.01
2023-02-18T01:37:10.346Z,7.49
2023-02-18T01:37:20.348Z,7.86
2023-02-18T01:37:30.331Z,7.71
2023-02-18T01:37:40.357Z,7.75
2023-02-18T01:37:50.343Z,7.30
2023-02-18T01:38:00.352Z,6.78
2023-02-18T01:38:10.354Z,7.01
2023-02-18T01:38:20.317Z,7.21
2023-02-18T01:38:30.330Z,7.43
2023-02-18T01:38:40.317Z,7.87
2023-02-18T01:38:50.321Z,7.84
2023-02-18T01:39:00.353Z,8.08
2023-02-18T01:39:10.323Z,8.29
2023-02-18T01:39:20.319Z,8.27
2023-02-18T01:39:30.369Z,7.96
2023-02-18T01:39:40.318Z,7.83
2023-02-18T01:39:50.301Z,7.93
2023-02-18T01:40:00.318Z,8.13
2023-02-18T01:40:10.318Z,8.00
2023-02-18T01:40:20.313Z,7.84
2023-02-18T01:40:30.321Z,7.62
2023-02-18T01:40:40.315Z,7.50
2023-02-18T01:40:50.303Z,7.89
2023-02-18T01:41:00.312Z,7.95
2023-02-18T01:41:10.320Z,7.82
2023-02-18T01:41:20.308Z,7.99
2023-02-18T01:41:30.320Z,7.91
2023-02-18T01:41:40.313Z,7.89
2023-02-18T01:41:50.308Z,7.65
2023-02-18T01:42:00.314Z,7.58
2023-02-18T01:42:10.305Z,8.06
2023-02-18T01:42:20.337Z,8.13
2023-02-18T01:42:30.329Z,8.49
2023-02-18T01:42:40.339Z,8.18
2023-02-18T01:42:50.347Z,8.09
2023-02-18T01:43:00.364Z,8.24
2023-02-18T01:43:10.367Z,8.76
2023-02-18T01:43:20.369Z,8.83
2023-02-18T01:43:30.367Z,8.85
2023-02-18T01:43:40.362Z,9.04
2023-02-18T01:43:50.413Z,8.93
2023-02-18T01:44:00.394Z,8.75
2023-02-18T01:44:10.420Z,8.78
2023-02-18T01:44:20.421Z,8.38
2023-02-18T01:44:30.484Z,8.13
2023-02-18T01:44:40.431Z,7.82
2023-02-18T01:44:50.453Z,7.93
2023-02-18T01:45:00.461Z,8.24
2023-02-18T01:45:10.443Z,8.24
2023-02-18T01:45:20.480Z,8.52
2023-02-18T01:45:30.473Z,8.89
2023-02-18T01:45:40.472Z,8.85
2023-02-18T01:45:50.514Z,8.25
2023-02-18T01:46:00.507Z,8.17
2023-02-18T01:46:10.724Z,8.71
2023-02-18T01:46:20.607Z,8.56
2023-02-18T01:46:30.552Z,8.05
2023-02-18T01:46:40.564Z,7.60
2023-02-18T01:46:50.577Z,7.75
2023-02-18T01:47:00.552Z,8.76
2023-02-18T01:47:10.550Z,8.66
2023-02-18T01:47:20.601Z,8.44
2023-02-18T01:47:30.596Z,8.78
2023-02-18T01:47:40.589Z,8.73
2023-02-18T01:47:50.600Z,9.07
2023-02-18T01:48:00.598Z,9.14
2023-02-18T01:48:10.604Z,8.71
2023-02-18T01:48:20.633Z,9.09
2023-02-18T01:48:30.659Z,8.82
2023-02-18T01:48:40.623Z,8.26
2023-02-18T01:48:50.656Z,7.95
2023-02-18T01:49:00.671Z,7.76
2023-02-18T01:49:10.661Z,7.61
2023-02-18T01:49:20.670Z,7.71
2023-02-18T01:49:30.730Z,7.11
2023-02-18T01:49:40.671Z,7.02
2023-02-18T01:49:50.710Z,7.35
2023-02-18T01:50:00.697Z,7.69
2023-02-18T01:50:10.695Z,7.92
2023-02-18T01:50:20.729Z,8.29
2023-02-18T01:50:30.731Z,7.75
2023-02-18T01:50:40.740Z,7.95
2023-02-18T01:50:50.762Z,8.02
2023-02-18T01:51:00.760Z,7.89
2023-02-18T01:51:10.739Z,8.32
2023-02-18T01:51:20.787Z,7.96
2023-02-18T01:51:30.771Z,7.77
2023-02-18T01:51:40.771Z,7.43
2023-02-18T01:51:50.798Z,7.65
2023-02-18T01:52:00.796Z,7.70
2023-02-18T01:52:10.792Z,7.59
2023-02-18T01:52:20.830Z,7.94
2023-02-18T01:52:30.834Z,7.94
2023-02-18T01:52:40.829Z,7.47
2023-02-18T01:52:50.865Z,7.59
2023-02-18T01:53:00.857Z,7.63
2023-02-18T01:53:10.865Z,7.38
2023-02-18T01:53:20.883Z,7.31
2023-02-18T01:53:30.879Z,7.29
2023-02-18T01:53:40.879Z,7.49
2023-02-18T01:53:50.903Z,7.02
2023-02-18T01:54:00.893Z,7.47
2023-02-18T01:54:10.926Z,7.72
2023-02-18T01:54:20.934Z,7.85
2023-02-18T01:54:31.004Z,7.93
2023-02-18T01:54:40.953Z,7.78
2023-02-18T01:54:50.947Z,7.99
2023-02-18T01:55:00.960Z,7.78
2023-02-18T01:55:10.960Z,7.73
2023-02-18T01:55:20.985Z,7.64
2023-02-18T01:55:31.000Z,7.56
2023-02-18T01:55:40.977Z,7.72
2023-02-18T01:55:50.987Z,7.41
2023-02-18T01:56:00.993Z,7.46
2023-02-18T01:56:10.987Z,7.53
2023-02-18T01:56:21.038Z,7.91
2023-02-18T01:56:31.031Z,7.55
2023-02-18T01:56:41.015Z,7.68
2023-02-18T01:56:51.058Z,7.76
2023-02-18T01:57:01.060Z,7.83
2023-02-18T01:57:11.058Z,8.18
2023-02-18T01:57:21.084Z,8.24
2023-02-18T01:57:31.078Z,8.10
2023-02-18T01:57:41.069Z,7.82
2023-02-18T01:57:51.085Z,7.68
2023-02-18T01:58:01.098Z,7.19
2023-02-18T01:58:11.088Z,6.98
2023-02-18T01:58:21.148Z,7.46
2023-02-18T01:58:31.133Z,7.44
2023-02-18T01:58:41.116Z,7.41
2023-02-18T01:58:51.153Z,7.47
2023-02-18T01:59:01.147Z,7.41
2023-02-18T01:59:11.148Z,8.05
2023-02-18T01:59:21.165Z,7.41
2023-02-18T01:59:31.205Z,7.02
2023-02-18T01:59:41.173Z,6.64
2023-02-18T01:59:51.187Z,6.73
2023-02-18T02:00:01.187Z,7.07
2023-02-18T02:00:11.190Z,7.27
2023-02-18T02:00:21.216Z,7.46
2023-02-18T02:00:31.260Z,7.23
2023-02-18T02:00:41.234Z,7.35
2023-02-18T02:00:51.276Z,7.53
2023-02-18T02:01:01.338Z,6.86
2023-02-18T02:01:11.297Z,6.46
2023-02-18T02:01:21.272Z,6.96
2023-02-18T02:01:31.270Z,6.85
2023-02-18T02:01:41.344Z,6.62
2023-02-18T02:01:51.328Z,7.35
2023-02-18T02:02:01.358Z,7.78
2023-02-18T02:02:11.340Z,8.06
2023-02-18T02:02:21.312Z,7.97
2023-02-18T02:02:31.326Z,7.24
2023-02-18T02:02:41.343Z,6.92
2023-02-18T02:02:51.358Z,7.00
2023-02-18T02:03:01.379Z,6.93
2023-02-18T02:03:11.339Z,7.08
2023-02-18T02:03:21.371Z,7.33
2023-02-18T02:03:31.383Z,7.36
2023-02-18T02:03:41.400Z,7.19
2023-02-18T02:03:51.377Z,7.15
2023-02-18T02:04:01.385Z,7.56
2023-02-18T02:04:11.393Z,7.64
2023-02-18T02:04:21.429Z,7.93
2023-02-18T02:04:31.470Z,8.41
2023-02-18T02:04:41.416Z,8.99
2023-02-18T02:04:51.460Z,8.26
2023-02-18T02:05:01.461Z,7.91
2023-02-18T02:05:11.450Z,7.76
2023-02-18T02:05:21.495Z,7.80
2023-02-18T02:05:31.469Z,7.60
2023-02-18T02:05:41.451Z,7.76
2023-02-18T02:05:51.479Z,7.56
2023-02-18T02:06:01.490Z,7.84
2023-02-18T02:06:11.492Z,8.30
2023-02-18T02:06:21.508Z,8.33
2023-02-18T02:06:31.535Z,7.99
2023-02-18T02:06:41.500Z,7.62
2023-02-18T02:06:51.553Z,7.61
2023-02-18T02:07:01.546Z,7.82
2023-02-18T02:07:11.547Z,8.04
2023-02-18T02:07:21.586Z,8.11
2023-02-18T02:07:31.586Z,8.02
2023-02-18T02:07:41.559Z,7.66
2023-02-18T02:07:51.608Z,7.47
2023-02-18T02:08:01.593Z,7.68
2023-02-18T02:08:11.614Z,7.83
2023-02-18T02:08:21.604Z,7.59
2023-02-18T02:08:31.616Z,8.07
2023-02-18T02:08:41.621Z,8.10
2023-02-18T02:08:51.664Z,8.23
2023-02-18T02:09:01.646Z,8.48
2023-02-18T02:09:11.638Z,8.51
2023-02-18T02:09:21.673Z,8.25
2023-02-18T02:09:31.749Z,8.03
2023-02-18T02:09:41.689Z,7.48
2023-02-18T02:09:51.702Z,7.53
2023-02-18T02:10:01.715Z,7.80
2023-02-18T02:10:11.697Z,7.50
2023-02-18T02:10:21.730Z,7.39
2023-02-18T02:10:31.728Z,7.76
2023-02-18T02:10:41.690Z,7.77
2023-02-18T02:10:51.744Z,7.82
2023-02-18T02:11:01.761Z,7.72
2023-02-18T02:11:11.753Z,7.67
2023-02-18T02:11:21.776Z,7.28
2023-02-18T02:11:31.767Z,7.79
2023-02-18T02:11:41.796Z,8.36
2023-02-18T02:11:51.817Z,7.95
2023-02-18T02:12:01.789Z,7.76
2023-02-18T02:12:11.794Z,7.56
2023-02-18T02:12:21.840Z,7.43